Pembroke, Massachusetts
Current Conditions -  °F | °C
As of 9:15 AM on Thursday 18 Dec 2014 (Local Time) from KGHG Reporting Station
Scattered Clouds Scattered Clouds  
Wind Chill: 30°   Ceiling: Unl
Heat Index: 37°   Visibility: 9mi
Dew Point: 36°   Wind: 12mph
Humidity: 93%   Direction: 270°W
Pressure: 29.79"   Gusts: 23mph
Location:  42.07°N, 70.81°W
Report Text: KGHG 181415Z AUTO 27010G20KT 010V010 9SM FEW011 SCT018 03/02 A2979 RMK AO2
Loading
Personal Weather Stations






























Interactive Weather Map New forecast layout! Learn more

10-Day Weather Forecast

Advertisements
Track Severe Weather on mobile